sensor_id;sensor_type;location;lat;lon;timestamp;P1;durP1;ratioP1;P2;durP2;ratioP2
948;SDS011;461;51.436;7.312;2023-05-02T02:10:44;46.87;;;30.90;;
948;SDS011;461;51.436;7.312;2023-05-02T02:14:24;46.20;;;32.20;;
948;SDS011;461;51.436;7.312;2023-05-02T02:16:45;49.57;;;31.43;;
948;SDS011;461;51.436;7.312;2023-05-02T02:19:37;47.30;;;32.27;;
948;SDS011;461;51.436;7.312;2023-05-02T02:22:49;50.33;;;33.27;;
948;SDS011;461;51.436;7.312;2023-05-02T02:25:53;45.10;;;31.40;;
948;SDS011;461;51.436;7.312;2023-05-02T02:28:24;43.43;;;31.30;;
948;SDS011;461;51.436;7.312;2023-05-02T02:30:54;48.57;;;31.60;;
948;SDS011;461;51.436;7.312;2023-05-02T02:33:53;48.67;;;31.20;;
948;SDS011;461;51.436;7.312;2023-05-02T02:48:15;46.40;;;27.53;;
948;SDS011;461;51.436;7.312;2023-05-02T02:54:12;39.87;;;26.93;;
948;SDS011;461;51.436;7.312;2023-05-02T02:57:33;39.67;;;28.03;;
948;SDS011;461;51.436;7.312;2023-05-02T03:03:26;39.93;;;26.30;;
948;SDS011;461;51.436;7.312;2023-05-02T03:06:06;40.70;;;25.23;;
948;SDS011;461;51.436;7.312;2023-05-02T03:08:48;39.63;;;26.57;;
948;SDS011;461;51.436;7.312;2023-05-02T03:11:20;37.53;;;25.43;;
948;SDS011;461;51.436;7.312;2023-05-02T03:14:01;41.60;;;24.10;;
948;SDS011;461;51.436;7.312;2023-05-02T03:17:07;41.67;;;25.63;;
948;SDS011;461;51.436;7.312;2023-05-02T03:19:58;37.00;;;23.10;;
948;SDS011;461;51.436;7.312;2023-05-02T03:22:39;41.87;;;24.37;;
948;SDS011;461;51.436;7.312;2023-05-02T03:25:39;31.50;;;21.97;;
948;SDS011;461;51.436;7.312;2023-05-02T03:33:38;28.20;;;20.30;;
948;SDS011;461;51.436;7.312;2023-05-02T03:36:14;32.70;;;19.90;;
948;SDS011;461;51.436;7.312;2023-05-02T03:38:46;29.97;;;18.00;;
948;SDS011;461;51.436;7.312;2023-05-02T03:41:41;24.77;;;15.67;;
948;SDS011;461;51.436;7.312;2023-05-02T03:44:32;28.70;;;17.23;;
948;SDS011;461;51.436;7.312;2023-05-02T03:46:58;27.77;;;18.80;;
948;SDS011;461;51.436;7.312;2023-05-02T03:49:31;28.37;;;18.30;;
948;SDS011;461;51.436;7.312;2023-05-02T03:52:21;31.20;;;18.17;;
948;SDS011;461;51.436;7.312;2023-05-02T03:55:12;26.73;;;17.47;;
948;SDS011;461;51.436;7.312;2023-05-02T03:58:05;26.70;;;17.63;;
948;SDS011;461;51.436;7.312;2023-05-02T04:01:19;31.50;;;17.63;;
948;SDS011;461;51.436;7.312;2023-05-02T04:03:57;26.03;;;17.40;;
948;SDS011;461;51.436;7.312;2023-05-02T04:06:32;23.93;;;16.80;;
948;SDS011;461;51.436;7.312;2023-05-02T04:09:16;23.07;;;14.83;;
948;SDS011;461;51.436;7.312;2023-05-02T04:11:54;23.73;;;16.53;;
948;SDS011;461;51.436;7.312;2023-05-02T04:14:21;22.97;;;15.30;;
948;SDS011;461;51.436;7.312;2023-05-02T04:16:52;23.53;;;15.20;;
948;SDS011;461;51.436;7.312;2023-05-02T04:22:02;23.23;;;13.10;;
948;SDS011;461;51.436;7.312;2023-05-02T04:24:31;23.20;;;15.27;;
948;SDS011;461;51.436;7.312;2023-05-02T04:27:22;20.73;;;14.43;;
948;SDS011;461;51.436;7.312;2023-05-02T04:30:16;21.20;;;14.20;;
948;SDS011;461;51.436;7.312;2023-05-02T04:32:42;21.97;;;13.90;;
948;SDS011;461;51.436;7.312;2023-05-02T04:35:15;22.80;;;14.90;;
948;SDS011;461;51.436;7.312;2023-05-02T04:37:41;21.87;;;15.50;;
948;SDS011;461;51.436;7.312;2023-05-02T04:40:10;25.47;;;17.00;;
948;SDS011;461;51.436;7.312;2023-05-02T04:42:49;20.43;;;15.77;;
948;SDS011;461;51.436;7.312;2023-05-02T04:45:19;24.97;;;15.47;;
948;SDS011;461;51.436;7.312;2023-05-02T04:47:50;26.23;;;14.77;;
948;SDS011;461;51.436;7.312;2023-05-02T04:50:23;23.10;;;15.97;;
948;SDS011;461;51.436;7.312;2023-05-02T04:53:01;29.97;;;16.70;;
948;SDS011;461;51.436;7.312;2023-05-02T04:55:28;21.50;;;14.90;;
948;SDS011;461;51.436;7.312;2023-05-02T04:58:00;26.70;;;15.87;;
948;SDS011;461;51.436;7.312;2023-05-02T05:00:27;26.03;;;15.57;;
948;SDS011;461;51.436;7.312;2023-05-02T05:02:57;25.90;;;15.73;;
948;SDS011;461;51.436;7.312;2023-05-02T05:05:24;26.70;;;14.90;;
948;SDS011;461;51.436;7.312;2023-05-02T05:07:54;30.43;;;16.20;;
948;SDS011;461;51.436;7.312;2023-05-02T05:10:26;24.20;;;14.70;;
948;SDS011;461;51.436;7.312;2023-05-02T05:12:56;26.40;;;16.40;;
948;SDS011;461;51.436;7.312;2023-05-02T05:15:28;24.70;;;15.10;;
948;SDS011;461;51.436;7.312;2023-05-02T05:18:10;24.40;;;14.33;;
948;SDS011;461;51.436;7.312;2023-05-02T05:20:39;24.63;;;15.83;;
948;SDS011;461;51.436;7.312;2023-05-02T05:23:14;24.77;;;15.53;;
948;SDS011;461;51.436;7.312;2023-05-02T05:25:40;24.87;;;15.10;;
948;SDS011;461;51.436;7.312;2023-05-02T05:28:22;24.60;;;16.23;;
948;SDS011;461;51.436;7.312;2023-05-02T05:30:51;24.93;;;15.30;;
948;SDS011;461;51.436;7.312;2023-05-02T05:33:39;27.77;;;16.40;;
948;SDS011;461;51.436;7.312;2023-05-02T05:36:31;27.37;;;17.47;;
948;SDS011;461;51.436;7.312;2023-05-02T05:39:00;33.00;;;17.80;;
948;SDS011;461;51.436;7.312;2023-05-02T05:41:56;26.40;;;14.77;;
948;SDS011;461;51.436;7.312;2023-05-02T05:44:29;20.20;;;12.00;;
948;SDS011;461;51.436;7.312;2023-05-02T05:55:26;12.37;;;8.43;;
948;SDS011;461;51.436;7.312;2023-05-02T05:58:15;11.90;;;7.97;;
948;SDS011;461;51.436;7.312;2023-05-02T06:00:50;11.70;;;8.40;;
948;SDS011;461;51.436;7.312;2023-05-02T06:03:23;9.90;;;7.50;;
948;SDS011;461;51.436;7.312;2023-05-02T06:05:53;13.83;;;7.80;;
948;SDS011;461;51.436;7.312;2023-05-02T07:00:12;8.80;;;7.00;;
948;SDS011;461;51.436;7.312;2023-05-02T07:02:47;13.47;;;7.33;;
948;SDS011;461;51.436;7.312;2023-05-02T07:05:31;12.33;;;7.80;;
948;SDS011;461;51.436;7.312;2023-05-02T07:08:04;11.60;;;7.33;;
948;SDS011;461;51.436;7.312;2023-05-02T07:10:34;8.83;;;6.10;;
948;SDS011;461;51.436;7.312;2023-05-02T07:13:04;7.40;;;6.60;;
948;SDS011;461;51.436;7.312;2023-05-02T07:15:39;18.40;;;15.53;;
948;SDS011;461;51.436;7.312;2023-05-02T07:18:32;10.90;;;7.50;;
948;SDS011;461;51.436;7.312;2023-05-02T07:21:05;7.80;;;7.00;;
948;SDS011;461;51.436;7.312;2023-05-02T07:23:59;9.40;;;7.10;;
948;SDS011;461;51.436;7.312;2023-05-02T07:26:45;9.73;;;6.77;;
948;SDS011;461;51.436;7.312;2023-05-02T07:29:15;9.57;;;7.10;;
948;SDS011;461;51.436;7.312;2023-05-02T07:31:52;11.33;;;5.60;;
948;SDS011;461;51.436;7.312;2023-05-02T07:34:18;9.33;;;6.53;;
948;SDS011;461;51.436;7.312;2023-05-02T07:37:44;10.10;;;5.13;;
948;SDS011;461;51.436;7.312;2023-05-02T07:40:22;10.17;;;5.53;;
948;SDS011;461;51.436;7.312;2023-05-02T07:42:52;7.70;;;5.13;;
948;SDS011;461;51.436;7.312;2023-05-02T07:45:21;8.67;;;5.00;;
948;SDS011;461;51.436;7.312;2023-05-02T07:50:55;9.67;;;4.40;;
948;SDS011;461;51.436;7.312;2023-05-02T07:54:02;8.50;;;4.37;;
948;SDS011;461;51.436;7.312;2023-05-02T07:57:08;8.70;;;4.33;;
948;SDS011;461;51.436;7.312;2023-05-02T08:03:24;5.90;;;4.60;;
948;SDS011;461;51.436;7.312;2023-05-02T08:06:56;5.20;;;3.77;;
948;SDS011;461;51.436;7.312;2023-05-02T18:30:29;7.80;;;5.40;;
948;SDS011;461;51.436;7.312;2023-05-02T18:33:03;13.60;;;5.27;;
948;SDS011;461;51.436;7.312;2023-05-02T18:35:31;8.97;;;5.90;;
